Time;durP1;ratioP1;P1;durP2;ratioP2;P2;SDS_P1;SDS_P2;PMS_P1;PMS_P2;Temp;Humidity;BMP_temperature;BMP_pressure;BME280_temperature;BME280_humidity;BME280_pressure;Samples;Min_cycle;Max_cycle;Signal;HPM_P1;HPM_P2
2023/12/13 00:00:26;;;;;;;63.60;24.83;;;7.10;99.90;;;;;;5154048;27;20038;-84
2023/12/13 00:02:52;;;;;;;53.40;23.38;;;7.80;99.90;;;;;;5135320;27;20129;-86
2023/12/13 00:05:18;;;;;;;56.50;23.60;;;7.40;99.90;;;;;;5135897;27;20532;-83
2023/12/13 00:07:44;;;;;;;46.97;23.55;;;7.50;99.90;;;;;;5136141;27;20376;-83
2023/12/13 00:10:09;;;;;;;48.70;24.52;;;7.90;99.90;;;;;;5154020;27;20453;-83
2023/12/13 00:12:35;;;;;;;52.05;23.02;;;7.10;99.90;;;;;;5163839;27;20073;-84
2023/12/13 00:15:01;;;;;;;56.58;24.00;;;7.10;99.90;;;;;;5170947;27;20039;-83
2023/12/13 00:17:26;;;;;;;62.17;24.92;;;7.40;99.90;;;;;;5153299;27;20043;-83
2023/12/13 00:19:52;;;;;;;63.65;25.42;;;7.10;99.90;;;;;;5135662;27;20046;-83
2023/12/13 00:22:18;;;;;;;55.17;23.20;;;7.20;99.90;;;;;;5135660;27;20054;-84
2023/12/13 00:24:43;;;;;;;55.60;23.00;;;7.20;99.90;;;;;;5135060;27;20117;-86
2023/12/13 00:27:09;;;;;;;47.75;22.73;;;7.90;99.90;;;;;;5135269;27;20134;-84
2023/12/13 00:29:35;;;;;;;53.17;23.35;;;7.40;99.90;;;;;;5153283;27;20409;-83
2023/12/13 00:32:01;;;;;;;43.97;22.58;;;7.50;99.90;;;;;;5153725;27;20121;-84
2023/12/13 00:34:26;;;;;;;48.15;23.10;;;7.10;99.90;;;;;;5153621;27;20035;-83
2023/12/13 00:36:52;;;;;;;40.97;21.20;;;7.80;99.90;;;;;;5153599;27;20428;-83
2023/12/13 00:39:18;;;;;;;48.42;22.33;;;7.10;99.90;;;;;;5120093;27;20038;-84
2023/12/13 00:41:43;;;;;;;59.92;22.15;;;7.10;99.90;;;;;;5158053;27;20046;-84
2023/12/13 00:44:09;;;;;;;40.35;21.48;;;7.70;99.90;;;;;;5122446;27;20078;-84
2023/12/13 00:46:35;;;;;;;48.92;23.42;;;7.30;99.90;;;;;;5157020;27;20058;-83
2023/12/13 00:49:00;;;;;;;48.63;20.65;;;7.70;99.90;;;;;;5139323;27;20061;-83
2023/12/13 00:51:26;;;;;;;37.45;19.98;;;7.10;99.90;;;;;;5138734;27;20038;-84
2023/12/13 00:53:52;;;;;;;46.50;21.92;;;7.00;99.90;;;;;;5157997;27;20035;-84
2023/12/13 00:56:18;;;;;;;47.78;20.40;;;7.20;99.90;;;;;;5138588;27;20055;-83
2023/12/13 00:58:45;;;;;;;37.72;19.17;;;7.00;99.90;;;;;;5138153;27;20049;-83
2023/12/13 01:01:11;;;;;;;39.30;19.13;;;7.50;99.90;;;;;;5138990;27;20078;-83
2023/12/13 01:03:37;;;;;;;50.80;22.05;;;7.20;99.90;;;;;;5157723;27;20035;-84
2023/12/13 01:06:09;;;;;;;40.25;19.80;;;7.00;99.90;;;;;;5139214;27;20043;-83
2023/12/13 01:08:38;;;;;;;49.17;20.55;;;7.20;99.90;;;;;;5139265;27;20398;-84
2023/12/13 01:11:10;;;;;;;38.58;19.05;;;7.00;99.90;;;;;;5157562;27;20117;-84
2023/12/13 01:13:37;;;;;;;39.53;18.48;;;7.70;99.90;;;;;;5138796;27;20391;-83
2023/12/13 01:16:03;;;;;;;34.65;17.75;;;7.30;99.90;;;;;;5138744;27;20057;-84
2023/12/13 01:18:29;;;;;;;35.78;18.48;;;7.00;99.90;;;;;;5157462;27;20047;-84
2023/12/13 01:20:55;;;;;;;41.45;18.67;;;7.70;99.90;;;;;;5121196;27;20042;-83
2023/12/13 01:23:21;;;;;;;42.97;18.63;;;7.60;99.90;;;;;;5138568;27;20050;-84
2023/12/13 01:25:46;;;;;;;39.78;18.65;;;7.40;99.90;;;;;;5121385;27;20559;-84
2023/12/13 01:28:12;;;;;;;35.55;16.63;;;7.60;99.90;;;;;;5156183;27;20046;-83
2023/12/13 01:30:37;;;;;;;34.42;16.73;;;6.40;99.90;;;;;;5137659;27;20049;-83
2023/12/13 01:33:03;;;;;;;31.05;16.98;;;7.10;99.90;;;;;;5157063;27;20124;-83
2023/12/13 01:35:29;;;;;;;31.88;15.30;;;7.30;99.90;;;;;;5138684;27;20474;-84
2023/12/13 01:37:54;;;;;;;31.70;14.68;;;7.40;99.90;;;;;;5139004;27;20047;-83
2023/12/13 01:40:20;;;;;;;33.47;13.10;;;7.50;99.90;;;;;;5157029;27;20050;-84
2023/12/13 01:42:46;;;;;;;24.13;11.55;;;7.70;99.90;;;;;;5120755;27;20487;-84
2023/12/13 01:45:12;;;;;;;19.55;10.48;;;7.50;99.90;;;;;;5121365;27;20038;-85
2023/12/13 01:47:38;;;;;;;21.30;10.32;;;7.00;99.90;;;;;;5156362;27;20054;-83
2023/12/13 01:50:04;;;;;;;40.85;11.90;;;7.50;99.90;;;;;;5137373;27;20109;-86
2023/12/13 01:52:30;;;;;;;20.05;10.23;;;7.00;99.90;;;;;;5120692;27;20047;-83
2023/12/13 01:54:56;;;;;;;29.48;11.20;;;7.60;99.90;;;;;;5137988;27;20055;-83
2023/12/13 01:57:23;;;;;;;23.92;10.98;;;7.00;99.90;;;;;;5155473;27;20050;-83
2023/12/13 01:59:49;;;;;;;28.50;11.63;;;7.40;99.90;;;;;;5156496;27;20038;-84
2023/12/13 02:02:15;;;;;;;36.40;13.10;;;7.70;99.90;;;;;;5156606;27;20078;-84
2023/12/13 02:04:42;;;;;;;31.38;12.52;;;7.60;99.90;;;;;;5138239;27;20138;-84
2023/12/13 02:07:08;;;;;;;31.55;13.00;;;6.90;99.90;;;;;;5156654;27;20050;-83
2023/12/13 02:09:34;;;;;;;31.25;13.55;;;7.70;99.90;;;;;;5156407;27;20193;-85
2023/12/13 02:12:00;;;;;;;52.08;16.25;;;7.70;99.90;;;;;;5156190;27;20372;-85
2023/12/13 02:14:25;;;;;;;41.83;16.48;;;7.40;99.90;;;;;;5137421;27;20125;-84
2023/12/13 02:16:53;;;;;;;40.50;16.80;;;7.50;99.90;;;;;;5155637;27;20077;-84
2023/12/13 02:19:19;;;;;;;37.17;15.73;;;7.30;99.90;;;;;;5137997;27;20054;-86
2023/12/13 02:21:44;;;;;;;45.13;17.17;;;7.50;99.90;;;;;;5156339;27;20406;-84
2023/12/13 02:24:11;;;;;;;46.78;18.23;;;7.30;99.90;;;;;;5137876;27;20030;-84
2023/12/13 02:26:41;;;;;;;49.70;16.60;;;7.70;99.90;;;;;;5136858;27;20066;-83
2023/12/13 02:29:08;;;;;;;43.95;17.83;;;7.30;99.90;;;;;;5132180;27;20083;-85
2023/12/13 02:31:35;;;;;;;43.42;18.50;;;7.90;99.90;;;;;;5155286;27;20058;-84
2023/12/13 02:34:04;;;;;;;64.28;19.98;;;7.20;99.90;;;;;;5155188;27;20402;-84
2023/12/13 02:36:30;;;;;;;44.60;19.92;;;7.50;99.90;;;;;;5136739;27;20053;-84
2023/12/13 02:38:55;;;;;;;45.20;19.73;;;7.70;99.90;;;;;;5154486;27;20042;-84
2023/12/13 02:41:21;;;;;;;46.22;18.63;;;7.80;99.90;;;;;;5136904;27;20478;-83
2023/12/13 02:43:46;;;;;;;50.90;20.02;;;7.20;99.90;;;;;;5151090;27;20046;-88
2023/12/13 02:46:12;;;;;;;50.92;20.23;;;7.50;99.90;;;;;;5142020;27;20043;-87
2023/12/13 02:48:38;;;;;;;56.90;19.52;;;7.20;99.90;;;;;;5155769;27;20054;-86
2023/12/13 02:51:04;;;;;;;52.38;21.55;;;7.20;99.90;;;;;;5137151;27;20038;-87
2023/12/13 02:53:29;;;;;;;59.30;19.80;;;7.20;99.90;;;;;;5155205;27;20045;-87
2023/12/13 02:55:55;;;;;;;49.53;19.05;;;7.70;99.90;;;;;;5155476;27;20050;-86
2023/12/13 02:58:21;;;;;;;54.35;20.65;;;7.20;99.90;;;;;;5136778;27;20042;-88
2023/12/13 03:00:48;;;;;;;48.63;19.95;;;7.20;99.90;;;;;;5137298;27;20046;-87
2023/12/13 03:03:13;;;;;;;65.13;20.45;;;7.80;99.90;;;;;;5164807;27;20083;-87
2023/12/13 03:05:39;;;;;;;48.63;20.02;;;7.30;99.90;;;;;;5140656;27;20420;-87
2023/12/13 03:08:05;;;;;;;43.45;18.65;;;7.50;99.90;;;;;;5157841;27;20034;-85
2023/12/13 03:10:30;;;;;;;49.45;21.00;;;7.90;99.90;;;;;;5176079;27;20039;-88
2023/12/13 03:12:56;;;;;;;60.58;22.33;;;7.20;99.90;;;;;;5146110;27;20050;-87
2023/12/13 03:15:22;;;;;;;58.20;21.63;;;7.20;99.90;;;;;;5136797;27;20039;-88
2023/12/13 03:17:47;;;;;;;55.88;22.08;;;7.30;99.90;;;;;;5155166;27;20043;-86
2023/12/13 03:20:13;;;;;;;57.28;22.15;;;7.90;99.90;;;;;;5119441;27;20049;-86
2023/12/13 03:22:39;;;;;;;63.58;22.60;;;7.30;99.90;;;;;;5136307;27;20039;-86
2023/12/13 03:25:05;;;;;;;47.47;22.00;;;7.60;99.90;;;;;;5119601;27;20074;-87
2023/12/13 03:27:31;;;;;;;58.95;22.38;;;7.20;99.90;;;;;;5136174;27;20049;-86
2023/12/13 03:29:56;;;;;;;57.17;20.83;;;7.50;99.90;;;;;;5155116;27;20050;-84
2023/12/13 03:32:22;;;;;;;47.97;20.92;;;7.60;99.90;;;;;;5154392;27;20052;-85
2023/12/13 03:34:48;;;;;;;55.30;21.95;;;7.30;99.90;;;;;;5136372;27;20398;-86
2023/12/13 03:37:15;;;;;;;54.70;21.45;;;7.40;99.90;;;;;;5136840;27;20110;-86
2023/12/13 03:39:41;;;;;;;50.72;21.60;;;7.70;99.90;;;;;;5136825;27;20049;-85
2023/12/13 03:42:06;;;;;;;68.45;23.13;;;7.80;99.90;;;;;;5136329;27;20427;-86
2023/12/13 03:44:32;;;;;;;68.93;24.08;;;7.90;99.90;;;;;;5119092;27;20091;-86
2023/12/13 03:46:58;;;;;;;52.88;20.95;;;7.70;99.90;;;;;;5154445;27;20042;-85
2023/12/13 03:49:23;;;;;;;50.08;20.90;;;7.50;99.90;;;;;;5135876;27;20129;-85
2023/12/13 03:51:49;;;;;;;56.13;20.73;;;7.40;99.90;;;;;;5136256;27;20053;-84
2023/12/13 03:54:15;;;;;;;56.72;22.75;;;7.90;99.90;;;;;;5136487;27;20046;-86
2023/12/13 03:56:41;;;;;;;79.28;22.60;;;7.20;99.90;;;;;;5135395;27;20058;-86
2023/12/13 03:59:07;;;;;;;57.60;22.23;;;8.00;99.90;;;;;;5136039;27;20085;-87
2023/12/13 04:01:33;;;;;;;54.50;20.48;;;7.90;99.90;;;;;;5154510;27;20039;-85
2023/12/13 04:03:59;;;;;;;46.40;20.73;;;7.30;99.90;;;;;;5135602;27;20061;-85
2023/12/13 04:06:24;;;;;;;51.10;21.70;;;7.70;99.90;;;;;;5135649;27;20043;-86
2023/12/13 04:08:50;;;;;;;61.95;22.55;;;7.80;99.90;;;;;;5154004;27;20115;-84
2023/12/13 04:11:16;;;;;;;56.72;21.27;;;7.30;99.90;;;;;;5135445;27;20054;-87
2023/12/13 04:13:42;;;;;;;77.60;23.90;;;7.90;99.90;;;;;;5135633;27;20134;-83
2023/12/13 04:16:08;;;;;;;44.92;20.85;;;7.70;99.90;;;;;;5135367;27;20114;-86
2023/12/13 04:18:34;;;;;;;51.97;22.17;;;7.20;99.90;;;;;;5135673;27;20110;-83
2023/12/13 04:21:00;;;;;;;92.88;24.15;;;7.70;99.90;;;;;;5153958;27;20448;-89
2023/12/13 04:23:26;;;;;;;69.88;22.45;;;7.90;99.90;;;;;;5135759;27;20046;-85
2023/12/13 04:25:52;;;;;;;83.93;22.05;;;7.20;99.90;;;;;;5158506;27;20042;-83
2023/12/13 04:28:17;;;;;;;75.55;21.92;;;7.30;99.90;;;;;;5174802;27;20508;-86
2023/12/13 04:30:43;;;;;;;52.97;21.35;;;7.20;99.90;;;;;;5174814;27;20440;-85
2023/12/13 04:33:09;;;;;;;72.72;21.95;;;7.80;99.90;;;;;;5175289;27;20042;-84
2023/12/13 04:35:34;;;;;;;64.43;22.40;;;7.60;99.90;;;;;;5142048;27;20490;-84
2023/12/13 04:38:00;;;;;;;61.88;22.58;;;7.90;99.90;;;;;;5135276;27;20041;-83
2023/12/13 04:40:26;;;;;;;48.88;19.77;;;7.00;99.90;;;;;;5154137;27;20098;-85
2023/12/13 04:42:51;;;;;;;51.00;20.38;;;7.30;99.90;;;;;;5135669;27;20046;-84
2023/12/13 04:45:17;;;;;;;76.43;22.95;;;7.20;99.90;;;;;;5135372;27;20047;-86
2023/12/13 04:47:43;;;;;;;51.97;21.27;;;7.60;99.90;;;;;;5135031;27;20371;-84
2023/12/13 04:50:09;;;;;;;59.20;21.20;;;7.20;99.90;;;;;;5153389;27;20047;-84
2023/12/13 04:52:35;;;;;;;45.15;19.65;;;7.20;99.90;;;;;;5154234;27;20035;-83
2023/12/13 04:55:01;;;;;;;45.50;18.80;;;7.70;99.90;;;;;;5135073;27;20551;-84
2023/12/13 04:57:27;;;;;;;64.90;20.73;;;7.20;99.90;;;;;;5134752;27;20141;-83
2023/12/13 04:59:53;;;;;;;46.22;18.52;;;7.20;99.90;;;;;;5153414;27;20043;-83
2023/12/13 05:02:19;;;;;;;70.78;19.70;;;7.20;99.90;;;;;;5153831;27;20091;-85
2023/12/13 05:04:45;;;;;;;51.15;19.05;;;7.60;99.90;;;;;;5135818;27;20064;-84
2023/12/13 05:07:11;;;;;;;43.42;18.58;;;7.70;99.90;;;;;;5135561;27;20057;-84
2023/12/13 05:09:37;;;;;;;48.35;17.20;;;7.40;99.90;;;;;;5154840;27;20043;-84
2023/12/13 05:12:03;;;;;;;59.00;19.20;;;7.20;99.90;;;;;;5155841;27;20157;-84
2023/12/13 05:14:29;;;;;;;50.28;18.38;;;7.20;99.90;;;;;;5174574;27;20039;-83
2023/12/13 05:16:54;;;;;;;39.88;17.58;;;7.50;99.90;;;;;;5174810;27;20038;-84
2023/12/13 05:19:20;;;;;;;39.47;17.58;;;7.70;99.90;;;;;;5170819;27;20402;-83
2023/12/13 05:21:46;;;;;;;65.78;18.98;;;8.10;99.90;;;;;;5134779;27;20049;-84
2023/12/13 05:24:12;;;;;;;51.97;17.40;;;7.70;99.90;;;;;;5135035;27;20034;-84
2023/12/13 05:26:37;;;;;;;54.40;20.15;;;7.30;99.90;;;;;;5120182;27;20074;-84
2023/12/13 05:29:03;;;;;;;42.60;17.52;;;7.20;99.90;;;;;;5138716;27;20463;-87
2023/12/13 05:31:29;;;;;;;42.42;17.88;;;7.50;99.90;;;;;;5138199;27;20066;-83
2023/12/13 05:33:54;;;;;;;42.47;17.63;;;7.60;99.90;;;;;;5138486;27;20067;-84
2023/12/13 05:36:20;;;;;;;45.22;17.83;;;7.30;99.90;;;;;;5157476;27;20078;-83
2023/12/13 05:38:46;;;;;;;81.85;21.17;;;7.40;99.90;;;;;;5138565;27;20049;-84
2023/12/13 05:41:12;;;;;;;64.85;19.25;;;7.20;99.90;;;;;;5138005;27;20031;-84
2023/12/13 05:43:37;;;;;;;37.75;17.85;;;7.60;99.90;;;;;;5138060;27;20434;-84
2023/12/13 05:46:10;;;;;;;57.90;20.27;;;7.90;99.90;;;;;;5156268;27;20035;-84
2023/12/13 05:48:35;;;;;;;52.17;18.88;;;7.80;99.90;;;;;;5156908;27;20372;-84
2023/12/13 05:51:01;;;;;;;50.22;18.27;;;7.90;99.90;;;;;;5137981;27;20049;-85
2023/12/13 05:53:27;;;;;;;57.47;19.48;;;7.40;99.90;;;;;;5157673;27;20118;-83
2023/12/13 05:55:53;;;;;;;47.63;17.67;;;7.40;99.90;;;;;;5138287;27;20086;-84
2023/12/13 05:58:19;;;;;;;86.88;19.80;;;7.80;99.90;;;;;;5138266;27;20107;-84
2023/12/13 06:00:45;;;;;;;46.95;17.52;;;7.50;99.90;;;;;;5137911;27;20047;-83
2023/12/13 06:03:11;;;;;;;46.60;19.02;;;7.20;99.90;;;;;;5137974;27;20494;-84
2023/12/13 06:05:36;;;;;;;54.80;19.38;;;7.20;99.90;;;;;;5137994;27;20038;-83
2023/12/13 06:08:02;;;;;;;49.65;18.63;;;7.50;99.90;;;;;;5137927;27;20091;-84
2023/12/13 06:10:28;;;;;;;48.95;18.13;;;7.20;99.90;;;;;;5137786;27;20462;-83
2023/12/13 06:12:54;;;;;;;46.78;18.13;;;7.50;99.90;;;;;;5155951;27;20042;-85
2023/12/13 06:15:21;;;;;;;46.65;18.13;;;7.10;99.90;;;;;;5156004;27;20034;-83
2023/12/13 06:17:47;;;;;;;43.28;18.00;;;7.80;99.90;;;;;;5137648;27;20125;-83
2023/12/13 06:20:13;;;;;;;43.10;16.85;;;7.20;99.90;;;;;;5155813;27;20126;-84
2023/12/13 06:22:39;;;;;;;60.60;19.90;;;7.20;99.90;;;;;;5156058;27;20049;-84
2023/12/13 06:25:05;;;;;;;39.15;17.50;;;7.50;99.90;;;;;;5157179;27;20031;-84
2023/12/13 06:27:31;;;;;;;52.75;18.92;;;7.20;99.90;;;;;;5155861;27;20046;-84
2023/12/13 06:29:56;;;;;;;53.28;18.73;;;7.20;99.90;;;;;;5137624;27;20038;-84
2023/12/13 06:32:22;;;;;;;40.42;17.00;;;7.50;99.90;;;;;;5155952;27;20138;-84
2023/12/13 06:34:48;;;;;;;37.83;17.23;;;7.50;99.90;;;;;;5137125;27;20046;-84
2023/12/13 06:37:13;;;;;;;60.53;18.27;;;7.40;99.90;;;;;;5136785;27;20387;-83
2023/12/13 06:39:39;;;;;;;46.30;18.25;;;7.90;99.90;;;;;;5120048;27;20034;-84
2023/12/13 06:42:08;;;;;;;43.13;16.98;;;7.50;99.90;;;;;;5155832;27;20045;-86
2023/12/13 06:44:37;;;;;;;35.78;17.75;;;7.20;99.90;;;;;;5137364;27;20091;-84
2023/12/13 06:47:03;;;;;;;44.90;17.42;;;7.20;99.90;;;;;;5155387;27;20134;-84
2023/12/13 06:49:30;;;;;;;45.55;18.50;;;7.20;99.90;;;;;;5155508;27;20046;-84
2023/12/13 06:51:57;;;;;;;39.95;18.00;;;7.20;99.90;;;;;;5155854;27;20082;-83
2023/12/13 06:54:23;;;;;;;53.05;18.58;;;7.50;99.90;;;;;;5136342;27;20063;-84
2023/12/13 06:56:48;;;;;;;41.20;17.05;;;7.20;99.90;;;;;;5128030;27;20554;-84
2023/12/13 06:59:15;;;;;;;59.30;18.38;;;7.80;99.90;;;;;;5154880;27;20158;-85
2023/12/13 07:01:40;;;;;;;32.60;16.45;;;7.40;99.90;;;;;;5136366;27;20046;-83
2023/12/13 07:04:06;;;;;;;34.47;16.92;;;7.30;99.90;;;;;;5154648;27;20042;-85
2023/12/13 07:06:32;;;;;;;55.35;18.13;;;7.80;99.90;;;;;;5136555;27;20052;-84
2023/12/13 07:08:59;;;;;;;55.10;18.17;;;7.90;99.90;;;;;;5136897;27;20400;-84
2023/12/13 07:11:25;;;;;;;47.55;18.33;;;7.40;99.90;;;;;;5155657;27;20558;-83
2023/12/13 07:13:51;;;;;;;40.20;16.05;;;7.20;99.90;;;;;;5136321;27;20026;-84
2023/12/13 07:16:17;;;;;;;42.30;15.93;;;7.70;99.90;;;;;;5154473;27;20058;-84
2023/12/13 07:18:42;;;;;;;36.40;17.08;;;7.50;99.90;;;;;;5136519;27;20034;-85
2023/12/13 07:21:08;;;;;;;41.60;17.85;;;7.20;99.90;;;;;;5155640;27;20129;-85
2023/12/13 07:23:35;;;;;;;34.53;17.52;;;7.20;99.90;;;;;;5119502;27;20487;-86
2023/12/13 07:26:02;;;;;;;34.83;15.82;;;7.30;99.90;;;;;;5120320;27;20050;-84
2023/12/13 07:28:29;;;;;;;38.13;17.02;;;7.70;99.90;;;;;;5153555;27;20495;-83
2023/12/13 07:30:57;;;;;;;56.40;17.80;;;7.80;99.90;;;;;;5136052;27;20046;-83
2023/12/13 07:33:23;;;;;;;44.17;17.75;;;7.80;99.90;;;;;;5154719;27;20501;-84
2023/12/13 07:35:50;;;;;;;57.25;17.80;;;7.20;99.90;;;;;;5119126;27;20107;-83
2023/12/13 07:38:15;;;;;;;40.70;16.63;;;7.20;99.90;;;;;;5136330;27;20402;-83
2023/12/13 07:40:44;;;;;;;59.65;19.35;;;7.20;99.90;;;;;;5136112;27;20044;-82
2023/12/13 07:43:11;;;;;;;51.78;18.92;;;7.60;99.90;;;;;;5118137;27;20038;-82
2023/12/13 07:45:37;;;;;;;40.30;17.90;;;7.30;99.90;;;;;;5136042;27;20049;-85
2023/12/13 07:48:03;;;;;;;36.38;17.23;;;7.60;99.90;;;;;;5134798;27;20117;-86
2023/12/13 07:50:29;;;;;;;49.97;17.42;;;7.20;99.90;;;;;;5136066;27;20133;-83
2023/12/13 07:52:58;;;;;;;37.88;16.83;;;7.20;99.90;;;;;;5135466;27;20074;-84
2023/12/13 07:55:24;;;;;;;42.80;17.92;;;7.20;99.90;;;;;;5118576;27;20133;-83
2023/12/13 07:57:50;;;;;;;34.42;16.45;;;7.80;99.90;;;;;;5154421;27;20129;-84
2023/12/13 08:00:16;;;;;;;51.17;18.38;;;8.00;99.90;;;;;;5136129;27;20126;-84
2023/12/13 08:10:06;;;;;;;45.15;17.23;;;7.20;99.90;;;;;;5154186;27;20143;-85
2023/12/13 08:12:34;;;;;;;71.53;20.73;;;7.20;99.90;;;;;;5135752;27;20035;-84
2023/12/13 08:15:01;;;;;;;56.13;19.48;;;7.70;99.90;;;;;;5135708;27;20078;-84
2023/12/13 08:17:26;;;;;;;36.22;17.55;;;7.80;99.90;;;;;;5154303;27;20049;-82
2023/12/13 08:19:52;;;;;;;74.80;20.02;;;7.40;99.90;;;;;;5135613;27;20054;-85
2023/12/13 08:22:18;;;;;;;43.55;19.40;;;7.20;99.90;;;;;;5118020;27;20557;-82
2023/12/13 08:24:44;;;;;;;42.15;18.60;;;7.20;99.90;;;;;;5135981;27;20053;-82
2023/12/13 08:27:10;;;;;;;40.65;18.02;;;7.20;99.90;;;;;;5153667;27;20050;-83
2023/12/13 08:29:36;;;;;;;34.53;17.42;;;7.80;99.90;;;;;;5134846;27;20038;-85
2023/12/13 08:32:01;;;;;;;40.53;18.52;;;7.30;99.90;;;;;;5152048;27;20039;-84
2023/12/13 08:34:27;;;;;;;40.10;18.27;;;7.20;99.90;;;;;;5154458;27;20067;-84
2023/12/13 08:36:53;;;;;;;41.15;18.25;;;8.00;99.90;;;;;;5136024;27;20050;-83
2023/12/13 08:39:18;;;;;;;37.00;18.40;;;7.20;99.90;;;;;;5153773;27;20035;-84
2023/12/13 08:41:44;;;;;;;73.35;21.13;;;7.40;99.90;;;;;;5135502;27;20035;-85
2023/12/13 08:44:09;;;;;;;38.45;17.88;;;7.90;99.90;;;;;;5118427;27;20091;-83
2023/12/13 08:46:35;;;;;;;50.78;19.65;;;7.80;99.90;;;;;;5135505;27;20042;-83
2023/12/13 08:49:01;;;;;;;59.40;19.67;;;7.60;99.90;;;;;;5135711;27;20039;-84
2023/12/13 08:51:27;;;;;;;40.60;19.30;;;7.90;99.90;;;;;;5135700;27;20114;-86
2023/12/13 08:53:54;;;;;;;47.85;17.98;;;7.60;99.90;;;;;;5153641;27;20042;-83
2023/12/13 08:56:20;;;;;;;43.95;19.05;;;7.80;99.90;;;;;;5135477;27;20054;-85
2023/12/13 08:58:46;;;;;;;53.17;19.33;;;7.80;99.90;;;;;;5118414;27;20167;-85
2023/12/13 09:01:12;;;;;;;40.63;19.23;;;7.60;99.90;;;;;;5156325;27;20068;-85
2023/12/13 09:03:38;;;;;;;48.20;18.63;;;7.80;99.90;;;;;;5139751;27;20085;-83
2023/12/13 09:06:06;;;;;;;47.90;21.10;;;7.30;99.90;;;;;;5157402;27;20130;-83
2023/12/13 09:08:31;;;;;;;66.28;22.67;;;7.40;99.90;;;;;;5139283;27;20070;-81
2023/12/13 09:10:57;;;;;;;46.78;20.55;;;7.70;99.90;;;;;;5157219;27;20464;-83
2023/12/13 09:13:24;;;;;;;42.72;19.75;;;7.90;99.90;;;;;;5139417;27;20046;-83
2023/12/13 09:15:49;;;;;;;51.80;21.42;;;7.40;99.90;;;;;;5138027;27;20057;-83
2023/12/13 09:18:15;;;;;;;41.75;18.73;;;7.70;99.90;;;;;;5138588;27;20461;-83
2023/12/13 09:20:41;;;;;;;59.83;21.20;;;7.70;99.90;;;;;;5139418;27;20042;-86
2023/12/13 09:23:07;;;;;;;44.95;19.23;;;8.10;99.90;;;;;;5139005;27;20049;-84
2023/12/13 09:25:32;;;;;;;51.00;20.77;;;7.50;99.90;;;;;;5138622;27;20402;-83
2023/12/13 09:28:00;;;;;;;37.83;18.67;;;8.10;99.90;;;;;;5137943;27;20041;-83
2023/12/13 09:30:25;;;;;;;52.55;22.33;;;8.00;99.90;;;;;;5138835;27;20030;-86
2023/12/13 09:32:51;;;;;;;61.97;22.38;;;7.90;99.90;;;;;;5121450;27;20498;-84
2023/12/13 09:35:17;;;;;;;52.13;21.05;;;7.80;99.90;;;;;;5156740;27;20049;-84
2023/12/13 09:37:42;;;;;;;46.83;19.13;;;8.10;99.90;;;;;;5121204;27;20047;-85
2023/12/13 09:40:15;;;;;;;43.33;19.70;;;7.60;99.90;;;;;;5120455;27;20043;-84
2023/12/13 09:42:45;;;;;;;95.07;24.92;;;7.90;99.90;;;;;;5137984;27;20093;-84
2023/12/13 09:45:16;;;;;;;70.13;23.95;;;7.80;99.90;;;;;;5137849;27;20390;-82
2023/12/13 09:47:42;;;;;;;66.95;23.35;;;7.70;99.90;;;;;;5135738;27;20054;-85
2023/12/13 09:50:11;;;;;;;69.45;24.23;;;7.70;99.90;;;;;;5125222;27;20509;-85
2023/12/13 09:52:38;;;;;;;64.38;22.33;;;7.70;99.90;;;;;;5156797;27;20038;-85
2023/12/13 09:55:06;;;;;;;54.40;21.35;;;7.70;99.90;;;;;;5156969;27;20066;-82
2023/12/13 09:57:32;;;;;;;62.72;23.73;;;7.80;99.90;;;;;;5155527;27;20047;-84
2023/12/13 09:59:58;;;;;;;56.58;22.30;;;8.10;99.90;;;;;;5155999;27;20448;-84
2023/12/13 10:02:23;;;;;;;49.58;23.17;;;7.50;99.90;;;;;;5137874;27;20386;-84
2023/12/13 10:04:52;;;;;;;45.15;21.45;;;7.80;99.90;;;;;;5138147;27;20047;-87
2023/12/13 10:07:18;;;;;;;51.92;23.20;;;8.20;99.90;;;;;;5119683;27;20113;-85
2023/12/13 10:09:45;;;;;;;69.38;23.45;;;8.50;99.90;;;;;;5156521;27;20466;-85
2023/12/13 10:12:14;;;;;;;56.80;23.30;;;7.90;99.90;;;;;;5154684;27;20039;-84
2023/12/13 10:14:40;;;;;;;50.50;22.55;;;8.60;99.90;;;;;;5156173;27;20441;-84
2023/12/13 10:17:05;;;;;;;53.38;22.75;;;8.10;99.90;;;;;;5156087;27;20047;-86
2023/12/13 10:19:32;;;;;;;76.68;23.67;;;8.60;99.90;;;;;;5155359;27;20030;-84
2023/12/13 10:21:58;;;;;;;46.45;21.50;;;8.60;99.90;;;;;;5137523;27;20525;-84
2023/12/13 10:24:25;;;;;;;54.33;22.45;;;8.40;99.90;;;;;;5156407;27;20053;-85
2023/12/13 10:26:51;;;;;;;50.63;23.13;;;8.30;99.90;;;;;;5137311;27;20049;-85
2023/12/13 10:29:19;;;;;;;68.82;24.30;;;8.10;99.90;;;;;;5136675;27;20038;-83
2023/12/13 10:31:45;;;;;;;73.15;24.73;;;8.10;99.90;;;;;;5136612;27;20072;-83
2023/12/13 10:34:11;;;;;;;72.30;25.20;;;8.10;99.90;;;;;;5119918;27;20039;-85
2023/12/13 10:36:38;;;;;;;71.63;26.58;;;8.10;99.90;;;;;;5137731;27;20046;-87
2023/12/13 10:39:05;;;;;;;77.32;26.30;;;8.50;99.90;;;;;;5156216;27;20094;-86
2023/12/13 10:41:31;;;;;;;61.92;24.25;;;8.20;99.90;;;;;;5136621;27;20035;-88
2023/12/13 10:43:59;;;;;;;70.53;25.67;;;8.20;99.90;;;;;;5137174;27;20276;-86
2023/12/13 10:46:27;;;;;;;83.75;25.73;;;8.20;99.90;;;;;;5136858;27;20082;-83
2023/12/13 10:48:54;;;;;;;95.47;28.08;;;8.10;99.90;;;;;;5137657;27;20039;-87
2023/12/13 10:51:22;;;;;;;63.25;23.63;;;8.90;99.90;;;;;;5155935;27;20155;-85
2023/12/13 10:53:48;;;;;;;75.93;27.73;;;8.60;99.90;;;;;;5129414;27;20510;-85
2023/12/13 10:56:15;;;;;;;109.28;27.00;;;8.20;99.90;;;;;;5155708;27;20110;-88
2023/12/13 10:58:44;;;;;;;92.93;27.52;;;8.30;99.90;;;;;;5137501;27;20511;-87
2023/12/13 11:01:11;;;;;;;90.65;27.77;;;8.10;99.90;;;;;;5136066;27;20095;-88
2023/12/13 11:04:01;;;;;;;99.22;27.48;;;8.10;99.90;;;;;;5137285;27;20046;-84
2023/12/13 11:06:27;;;;;;;75.53;25.25;;;8.10;99.90;;;;;;5155446;27;20048;-87
2023/12/13 11:08:53;;;;;;;60.20;24.67;;;8.00;99.90;;;;;;5119955;27;20050;-84
2023/12/13 11:11:19;;;;;;;99.05;25.40;;;8.00;99.90;;;;;;5161621;27;20049;-88
2023/12/13 11:13:53;;;;;;;86.38;24.80;;;8.00;99.90;;;;;;5126875;27;20123;-91
2023/12/13 11:16:21;;;;;;;80.77;24.20;;;8.00;99.90;;;;;;5126819;27;20072;-86
2023/12/13 11:18:49;;;;;;;87.07;23.52;;;8.00;99.90;;;;;;5136322;27;20034;-85
2023/12/13 11:21:32;;;;;;;38.90;19.52;;;8.40;99.90;;;;;;5136867;27;20042;-86
2023/12/13 11:24:13;;;;;;;30.10;12.38;;;8.00;99.90;;;;;;5130116;27;20455;-85
2023/12/13 11:26:47;;;;;;;28.55;10.93;;;7.90;99.90;;;;;;5155273;27;20042;-85
2023/12/13 11:29:18;;;;;;;16.65;8.90;;;7.80;99.90;;;;;;5137833;27;20126;-85
2023/12/13 11:31:56;;;;;;;25.40;10.15;;;7.80;99.90;;;;;;5152896;27;20643;-84
2023/12/13 11:34:48;;;;;;;17.42;9.82;;;7.80;99.90;;;;;;5143466;27;20039;-84
2023/12/13 11:37:15;;;;;;;17.98;9.25;;;8.00;99.90;;;;;;5154405;27;20066;-83
2023/12/13 11:39:44;;;;;;;19.23;8.80;;;8.20;99.90;;;;;;5154917;27;20046;-84
2023/12/13 11:42:11;;;;;;;17.30;8.52;;;8.30;99.90;;;;;;5118424;27;20066;-83
2023/12/13 11:44:38;;;;;;;18.05;7.50;;;7.80;99.90;;;;;;5136481;27;20111;-83
2023/12/13 11:47:10;;;;;;;13.82;8.32;;;8.00;99.90;;;;;;5136050;27;20043;-83
2023/12/13 11:49:40;;;;;;;13.68;7.10;;;7.80;99.90;;;;;;5136059;27;20177;-83
2023/12/13 11:52:07;;;;;;;13.27;7.07;;;7.70;99.90;;;;;;5135609;27;20038;-85
2023/12/13 11:54:36;;;;;;;11.05;6.68;;;8.30;99.90;;;;;;5135710;27;20038;-83
2023/12/13 11:57:16;;;;;;;12.43;6.65;;;7.70;99.90;;;;;;5154241;27;20049;-85
2023/12/13 11:59:42;;;;;;;10.93;6.28;;;7.70;99.90;;;;;;5154360;27;20039;-84
2023/12/13 12:02:09;;;;;;;10.18;5.45;;;8.30;99.90;;;;;;5153441;27;20115;-83
2023/12/13 12:04:36;;;;;;;11.65;5.63;;;7.70;99.90;;;;;;5140667;27;20483;-86
2023/12/13 12:07:06;;;;;;;12.15;5.57;;;7.50;99.90;;;;;;5135527;27;20035;-84
2023/12/13 12:09:32;;;;;;;7.55;4.60;;;8.20;99.90;;;;;;5154285;27;20039;-84
2023/12/13 12:11:58;;;;;;;9.38;4.72;;;7.60;99.90;;;;;;5154248;27;20046;-85
2023/12/13 12:14:27;;;;;;;6.28;3.95;;;7.70;99.90;;;;;;5154529;27;20038;-84
2023/12/13 12:16:54;;;;;;;6.13;3.50;;;7.80;99.90;;;;;;5154072;27;20039;-84
2023/12/13 12:19:19;;;;;;;6.03;3.90;;;7.60;99.90;;;;;;5154134;27;20035;-84
2023/12/13 12:21:45;;;;;;;6.18;3.17;;;8.30;99.90;;;;;;5135591;27;20053;-83
2023/12/13 12:24:11;;;;;;;5.95;3.05;;;8.30;99.90;;;;;;5154225;27;20095;-83
2023/12/13 12:26:37;;;;;;;5.72;3.22;;;7.50;99.90;;;;;;5154349;27;20051;-82
2023/12/13 12:29:02;;;;;;;5.90;3.10;;;7.50;99.90;;;;;;5154233;27;20046;-83
2023/12/13 12:31:30;;;;;;;5.93;3.40;;;7.50;99.90;;;;;;5152260;27;20065;-83
2023/12/13 12:33:57;;;;;;;5.78;3.15;;;8.00;99.90;;;;;;5135350;27;20078;-83
2023/12/13 12:36:23;;;;;;;5.65;3.15;;;8.10;99.90;;;;;;5158168;27;20045;-84
2023/12/13 12:38:49;;;;;;;5.88;3.38;;;7.90;99.90;;;;;;5140488;27;20043;-84
2023/12/13 12:41:15;;;;;;;6.63;3.30;;;7.80;99.90;;;;;;5157919;27;20120;-86